Time;durP1;ratioP1;P1;durP2;ratioP2;P2;SDS_P1;SDS_P2;PMS_P1;PMS_P2;Temp;Humidity;BMP_temperature;BMP_pressure;BME280_temperature;BME280_humidity;BME280_pressure;Samples;Min_cycle;Max_cycle;Signal;HPM_P1;HPM_P2
2023/03/13 00:01:13;;;;;;;16.50;4.23;;;;;;;8.48;100.00;99403.13;5071795;27;20232;-73
2023/03/13 00:03:38;;;;;;;16.13;4.67;;;;;;;8.53;100.00;99396.00;5080815;28;20180;-71
2023/03/13 00:06:04;;;;;;;17.43;4.80;;;;;;;8.61;100.00;99390.44;5087157;28;20184;-75
2023/03/13 00:08:29;;;;;;;15.37;4.37;;;;;;;8.66;100.00;99382.47;5089819;28;20204;-73
2023/03/13 00:10:55;;;;;;;17.00;4.47;;;;;;;8.63;100.00;99382.66;5087188;27;20223;-73
2023/03/13 00:13:20;;;;;;;14.90;4.63;;;;;;;8.70;100.00;99387.31;5084413;28;20270;-74
2023/03/13 00:15:46;;;;;;;13.40;4.30;;;;;;;8.60;100.00;99386.22;5076243;28;20596;-74
2023/03/13 00:18:11;;;;;;;15.67;3.93;;;;;;;8.60;100.00;99383.66;5102865;28;20180;-73
2023/03/13 00:20:37;;;;;;;17.27;4.83;;;;;;;8.66;100.00;99383.31;5088019;27;20761;-74
2023/03/13 00:23:02;;;;;;;15.17;3.47;;;;;;;8.71;100.00;99378.72;5104304;28;20176;-73
2023/03/13 00:25:28;;;;;;;13.93;4.70;;;;;;;8.62;100.00;99373.31;5093611;28;20245;-74
2023/03/13 00:27:53;;;;;;;18.83;4.43;;;;;;;8.59;100.00;99371.75;5092542;28;20250;-74
2023/03/13 00:30:18;;;;;;;16.47;4.57;;;;;;;8.63;100.00;99368.06;5064136;27;20269;-76
2023/03/13 00:32:45;;;;;;;16.43;4.40;;;;;;;8.58;100.00;99353.91;5088134;28;20215;-73
2023/03/13 00:35:12;;;;;;;15.10;3.67;;;;;;;8.74;100.00;99351.25;5075183;28;20188;-72
2023/03/13 00:37:37;;;;;;;13.87;4.07;;;;;;;8.69;100.00;99351.53;5074875;28;20172;-73
2023/03/13 00:40:04;;;;;;;16.47;3.97;;;;;;;8.55;100.00;99347.22;5089211;27;20256;-72
2023/03/13 00:42:29;;;;;;;18.30;4.40;;;;;;;8.47;100.00;99346.81;5093672;28;20181;-73
2023/03/13 00:44:54;;;;;;;11.83;3.60;;;;;;;8.59;100.00;99343.53;5075057;28;20187;-73
2023/03/13 00:47:20;;;;;;;17.67;3.80;;;;;;;8.64;100.00;99338.16;5092941;28;20215;-72
2023/03/13 00:49:45;;;;;;;15.77;4.30;;;;;;;8.60;100.00;99332.38;5093723;28;20679;-73
2023/03/13 00:52:10;;;;;;;15.77;4.80;;;;;;;8.67;100.00;99325.97;5083927;27;20223;-73
2023/03/13 00:54:36;;;;;;;11.87;4.23;;;;;;;8.71;100.00;99314.63;5092791;28;20187;-73
2023/03/13 00:57:01;;;;;;;11.30;3.00;;;;;;;8.48;100.00;99313.41;5092687;28;20748;-73
2023/03/13 00:59:26;;;;;;;12.10;3.73;;;;;;;8.52;100.00;99308.94;5093150;28;20191;-73
2023/03/13 01:01:52;;;;;;;11.83;3.77;;;;;;;8.51;100.00;99297.84;5096657;27;20231;-73
2023/03/13 01:04:17;;;;;;;18.63;3.90;;;;;;;8.64;100.00;99294.56;5068948;28;20192;-73
2023/03/13 01:06:43;;;;;;;15.27;3.90;;;;;;;8.62;100.00;99289.53;5071391;28;20592;-73
2023/03/13 01:09:15;;;;;;;13.00;3.97;;;;;;;8.71;100.00;99288.16;5092618;28;20205;-74
2023/03/13 01:11:42;;;;;;;15.40;3.60;;;;;;;8.90;100.00;99287.06;5077681;28;20215;-73
2023/03/13 01:14:11;;;;;;;12.00;3.40;;;;;;;8.79;100.00;99280.00;5076697;28;20317;-73
2023/03/13 01:16:38;;;;;;;11.37;3.40;;;;;;;8.78;100.00;99279.19;5061255;28;20171;-73
2023/03/13 01:19:06;;;;;;;13.20;4.17;;;;;;;8.75;100.00;99276.00;5074424;28;20214;-73
2023/03/13 01:21:32;;;;;;;14.50;3.77;;;;;;;8.87;100.00;99265.00;5076261;28;20215;-73
2023/03/13 01:23:58;;;;;;;13.73;4.10;;;;;;;8.93;100.00;99261.22;5077288;28;20219;-75
2023/03/13 01:26:24;;;;;;;13.07;3.50;;;;;;;8.96;100.00;99261.84;5092383;28;20566;-75
2023/03/13 01:28:49;;;;;;;13.57;3.50;;;;;;;9.04;100.00;99256.25;5092276;28;20212;-74
2023/03/13 01:31:18;;;;;;;14.60;3.53;;;;;;;8.85;100.00;99252.25;5073929;28;20760;-73
2023/03/13 01:33:45;;;;;;;15.70;3.90;;;;;;;8.91;100.00;99250.25;5097266;28;20756;-74
2023/03/13 01:36:12;;;;;;;12.13;3.47;;;;;;;8.87;100.00;99250.41;5073911;28;20257;-73
2023/03/13 01:38:38;;;;;;;11.17;2.77;;;;;;;8.93;100.00;99244.09;5073515;28;20176;-73
2023/03/13 01:41:04;;;;;;;9.47;3.00;;;;;;;9.09;100.00;99232.88;5089829;27;20234;-73
2023/03/13 01:43:33;;;;;;;9.83;3.17;;;;;;;9.13;100.00;99235.16;5098820;28;20188;-74
2023/03/13 01:46:04;;;;;;;18.73;3.67;;;;;;;9.12;100.00;99227.56;5073683;28;20176;-75
2023/03/13 01:48:38;;;;;;;10.00;2.97;;;;;;;8.99;100.00;99224.94;5091911;28;20235;-74
2023/03/13 01:51:09;;;;;;;13.63;3.20;;;;;;;9.24;100.00;99225.97;5071983;28;20234;-74
2023/03/13 01:53:37;;;;;;;9.97;3.23;;;;;;;9.29;100.00;99211.09;5080814;28;20176;-74
2023/03/13 01:56:06;;;;;;;12.03;3.20;;;;;;;9.32;100.00;99206.59;5073574;28;20180;-73
2023/03/13 01:58:32;;;;;;;7.83;2.70;;;;;;;9.39;100.00;99204.47;5073447;28;20525;-73
2023/03/13 02:00:58;;;;;;;9.90;3.00;;;;;;;9.47;100.00;99199.66;5088984;27;20233;-73
2023/03/13 02:03:25;;;;;;;9.40;2.93;;;;;;;9.52;100.00;99192.47;5081199;28;20260;-73
2023/03/13 02:05:51;;;;;;;7.00;2.80;;;;;;;9.60;100.00;99181.72;5073189;28;20595;-73
2023/03/13 02:08:24;;;;;;;13.40;2.97;;;;;;;9.58;100.00;99185.31;5091372;28;20172;-73
2023/03/13 02:11:09;;;;;;;9.80;3.07;;;;;;;9.49;100.00;99186.72;5069690;28;20268;-74
2023/03/13 02:13:34;;;;;;;12.33;3.50;;;;;;;9.65;100.00;99174.53;5068945;28;20176;-74
2023/03/13 02:16:00;;;;;;;7.60;2.90;;;;;;;9.67;100.00;99179.56;5090957;28;20183;-74
2023/03/13 02:18:25;;;;;;;10.27;3.87;;;;;;;9.66;100.00;99175.34;5073223;28;20184;-74
2023/03/13 02:20:57;;;;;;;12.27;3.47;;;;;;;9.55;100.00;99160.66;5087551;27;20714;-74
2023/03/13 02:23:41;;;;;;;16.33;3.60;;;;;;;9.63;100.00;99155.03;5082344;28;20207;-75
2023/03/13 02:26:06;;;;;;;9.80;3.00;;;;;;;9.63;100.00;99147.31;5072967;28;20176;-74
2023/03/13 02:28:34;;;;;;;9.87;2.83;;;;;;;9.66;100.00;99150.50;5091365;28;20192;-76
2023/03/13 02:31:00;;;;;;;10.37;3.07;;;;;;;9.63;100.00;99148.13;5088451;27;20284;-74
2023/03/13 02:33:29;;;;;;;9.77;3.13;;;;;;;9.63;100.00;99143.00;5099033;28;20203;-74
2023/03/13 02:35:55;;;;;;;7.67;2.50;;;;;;;9.64;100.00;99147.22;5073113;28;20266;-74
2023/03/13 02:38:25;;;;;;;9.67;2.83;;;;;;;9.74;100.00;99141.47;5073339;28;20176;-74
2023/03/13 02:40:52;;;;;;;11.60;2.83;;;;;;;9.60;100.00;99134.66;5069424;28;20215;-74
2023/03/13 02:43:33;;;;;;;9.00;2.57;;;;;;;9.59;100.00;99125.31;5082428;28;20186;-74
2023/03/13 02:46:08;;;;;;;9.37;2.90;;;;;;;9.70;100.00;99115.19;5057943;28;20635;-74
2023/03/13 02:48:37;;;;;;;8.57;2.63;;;;;;;9.67;100.00;99107.66;5087280;28;20330;-74
2023/03/13 02:51:08;;;;;;;9.37;2.60;;;;;;;9.83;100.00;99110.84;5070152;28;20219;-74
2023/03/13 02:53:34;;;;;;;5.57;2.10;;;;;;;9.87;100.00;99106.31;5080521;28;20188;-74
2023/03/13 02:55:59;;;;;;;8.07;2.50;;;;;;;9.84;100.00;99097.06;5072221;28;20204;-74
2023/03/13 02:58:25;;;;;;;9.33;2.47;;;;;;;9.85;100.00;99091.03;5091160;28;20188;-74
2023/03/13 03:00:51;;;;;;;6.43;2.37;;;;;;;9.91;100.00;99082.09;5087429;27;20223;-74
2023/03/13 03:03:17;;;;;;;9.57;2.60;;;;;;;9.84;100.00;99073.97;5099772;28;20204;-74
2023/03/13 03:05:42;;;;;;;5.17;2.20;;;;;;;9.93;100.00;99071.69;5091266;28;20253;-74
2023/03/13 03:08:07;;;;;;;8.87;2.67;;;;;;;9.94;100.00;99075.91;5072541;28;20188;-74
2023/03/13 03:10:35;;;;;;;7.07;2.50;;;;;;;9.98;100.00;99082.47;5066505;28;20326;-75
2023/03/13 03:13:00;;;;;;;7.47;2.20;;;;;;;9.99;100.00;99082.38;5102035;28;20306;-74
2023/03/13 03:15:26;;;;;;;5.10;1.80;;;;;;;9.93;100.00;99075.09;5094301;28;20267;-74
2023/03/13 03:17:51;;;;;;;5.57;2.53;;;;;;;9.92;100.00;99070.88;5094750;28;20180;-74
2023/03/13 03:20:16;;;;;;;5.80;1.90;;;;;;;9.90;100.00;99069.31;5085160;27;20263;-74
2023/03/13 03:22:42;;;;;;;5.43;1.53;;;;;;;10.02;100.00;99077.03;5108005;28;20179;-74
2023/03/13 03:25:08;;;;;;;6.97;2.03;;;;;;;10.01;100.00;99072.00;5094917;28;20180;-74
2023/03/13 03:27:35;;;;;;;4.93;1.63;;;;;;;9.96;100.00;99074.88;5076481;28;20261;-77
2023/03/13 03:30:01;;;;;;;3.77;1.73;;;;;;;9.95;100.00;99073.25;5076327;28;20239;-73
2023/03/13 03:32:26;;;;;;;6.07;1.70;;;;;;;9.91;100.00;99070.97;5099417;27;20247;-74
2023/03/13 03:34:51;;;;;;;2.90;1.57;;;;;;;9.97;100.00;99071.41;5076451;28;20176;-73
2023/03/13 03:37:17;;;;;;;3.37;1.70;;;;;;;10.05;100.00;99068.28;5094559;28;20263;-73
2023/03/13 03:39:42;;;;;;;5.67;1.70;;;;;;;10.08;100.00;99057.78;5094715;28;20172;-74
2023/03/13 03:42:08;;;;;;;4.70;1.63;;;;;;;10.13;100.00;99055.75;5081844;28;20219;-75
2023/03/13 03:44:33;;;;;;;5.17;1.77;;;;;;;10.06;100.00;99058.81;5076281;28;20517;-75
2023/03/13 03:46:59;;;;;;;3.60;1.33;;;;;;;10.13;100.00;99054.91;5094161;28;20249;-74
2023/03/13 03:49:24;;;;;;;4.97;1.30;;;;;;;10.13;100.00;99048.03;5076006;28;20226;-75
2023/03/13 03:51:49;;;;;;;6.73;1.53;;;;;;;10.17;100.00;99046.03;5097828;27;20306;-83
2023/03/13 03:54:18;;;;;;;3.20;1.30;;;;;;;10.15;100.00;99038.44;5095373;28;20195;-75
2023/03/13 03:56:43;;;;;;;4.20;1.53;;;;;;;10.24;100.00;99037.00;5075858;28;20219;-74
2023/03/13 03:59:08;;;;;;;1.43;1.10;;;;;;;10.30;100.00;99033.19;5076074;28;20211;-74
2023/03/13 04:01:33;;;;;;;2.70;1.40;;;;;;;10.29;100.00;99036.66;5083954;27;20671;-75
2023/03/13 04:03:59;;;;;;;3.23;1.10;;;;;;;10.13;100.00;99029.22;5081776;28;20196;-76
2023/03/13 04:06:24;;;;;;;5.13;1.63;;;;;;;10.21;100.00;99029.50;5073735;28;20189;-75
2023/03/13 04:08:49;;;;;;;3.40;1.27;;;;;;;10.12;100.00;99035.28;5072198;28;20196;-75
2023/03/13 04:11:15;;;;;;;6.90;1.37;;;;;;;10.26;100.00;99036.91;5082972;28;20268;-75
2023/03/13 04:13:40;;;;;;;2.27;0.93;;;;;;;10.23;100.00;99035.34;5099764;28;20178;-74
2023/03/13 04:16:07;;;;;;;2.77;1.10;;;;;;;10.21;100.00;99034.66;5091241;27;20534;-74
2023/03/13 04:18:32;;;;;;;3.70;1.20;;;;;;;10.18;100.00;99027.13;5083308;28;20207;-74
2023/03/13 04:21:02;;;;;;;3.33;1.47;;;;;;;10.12;100.00;99028.41;5072747;28;20243;-74
2023/03/13 04:23:28;;;;;;;2.07;1.03;;;;;;;10.14;100.00;99018.81;5083933;28;20183;-74
2023/03/13 04:25:53;;;;;;;3.37;1.00;;;;;;;10.09;100.00;99000.34;5074334;28;20172;-74
2023/03/13 04:28:18;;;;;;;0.97;0.73;;;;;;;10.22;100.00;99005.44;5093615;28;20176;-75
2023/03/13 04:30:43;;;;;;;1.10;1.00;;;;;;;10.15;100.00;99017.91;5067123;27;20646;-76
2023/03/13 04:33:09;;;;;;;1.63;0.90;;;;;;;10.19;100.00;99021.06;5102315;28;20196;-76
2023/03/13 04:35:34;;;;;;;2.93;0.90;;;;;;;10.14;100.00;99005.97;5093101;28;20643;-75
2023/03/13 04:38:01;;;;;;;2.43;1.20;;;;;;;10.18;100.00;98992.00;5093244;28;20195;-75
2023/03/13 04:40:26;;;;;;;1.03;0.80;;;;;;;10.24;100.00;98964.22;5085527;27;20673;-74
2023/03/13 04:42:51;;;;;;;1.00;0.73;;;;;;;10.12;100.00;98968.47;5105383;28;20184;-73
2023/03/13 04:45:17;;;;;;;2.60;1.10;;;;;;;10.17;100.00;98974.94;5092977;28;20183;-73
2023/03/13 04:47:42;;;;;;;2.40;1.20;;;;;;;10.14;100.00;98970.00;5092927;28;20207;-75
2023/03/13 04:50:08;;;;;;;3.23;1.30;;;;;;;10.24;100.00;98964.22;5082927;27;20200;-75
2023/03/13 04:52:33;;;;;;;1.07;0.87;;;;;;;10.10;100.00;98967.78;5089959;28;20191;-74
2023/03/13 04:54:58;;;;;;;2.30;1.20;;;;;;;10.14;100.00;98979.47;5093213;28;20309;-75
2023/03/13 04:57:24;;;;;;;1.63;1.10;;;;;;;10.11;100.00;98967.66;5074885;28;20203;-75
2023/03/13 04:59:49;;;;;;;2.43;1.30;;;;;;;10.22;100.00;98963.50;5074488;28;20184;-75
2023/03/13 05:02:14;;;;;;;2.63;1.30;;;;;;;10.14;100.00;98958.91;5093318;27;20223;-75
2023/03/13 05:04:39;;;;;;;2.93;1.37;;;;;;;10.17;100.00;98956.09;5086780;28;20543;-74
2023/03/13 05:07:05;;;;;;;2.80;1.20;;;;;;;10.27;100.00;98958.84;5092572;28;20180;-75
2023/03/13 05:09:30;;;;;;;2.10;1.57;;;;;;;10.28;100.00;98957.91;5074561;28;20665;-74
2023/03/13 05:11:55;;;;;;;2.10;1.33;;;;;;;10.23;100.00;98947.16;5079447;28;20219;-79
2023/03/13 05:14:23;;;;;;;3.67;1.60;;;;;;;10.16;100.00;98937.31;5091993;28;20208;-74
2023/03/13 05:16:49;;;;;;;2.73;1.10;;;;;;;10.12;100.00;98932.50;5080348;28;20221;-76
2023/03/13 05:19:14;;;;;;;3.70;1.60;;;;;;;10.17;100.00;98928.69;5107956;28;20176;-74
2023/03/13 05:21:39;;;;;;;1.87;1.30;;;;;;;10.16;100.00;98927.03;5094702;27;20223;-74
2023/03/13 05:24:05;;;;;;;3.13;1.40;;;;;;;10.24;100.00;98923.91;5094728;28;20184;-74
2023/03/13 05:26:30;;;;;;;1.90;1.50;;;;;;;10.23;100.00;98909.41;5092341;28;20190;-74
2023/03/13 05:28:56;;;;;;;1.53;1.33;;;;;;;10.28;100.00;98919.38;5092173;28;20207;-75
2023/03/13 05:31:21;;;;;;;3.87;1.70;;;;;;;10.23;100.00;98913.75;5092428;27;20306;-74
2023/03/13 05:33:46;;;;;;;2.13;1.80;;;;;;;10.24;100.00;98907.69;5096741;28;20196;-75
2023/03/13 05:36:12;;;;;;;2.80;2.03;;;;;;;10.27;100.00;98922.84;5092060;28;20187;-75
2023/03/13 05:38:37;;;;;;;3.13;1.97;;;;;;;10.26;100.00;98926.38;5092218;28;20233;-75
2023/03/13 05:41:02;;;;;;;3.40;2.10;;;;;;;10.27;100.00;98923.69;5089734;27;20231;-74
2023/03/13 05:43:28;;;;;;;2.47;2.20;;;;;;;10.36;100.00;98924.81;5081713;28;20636;-81
2023/03/13 05:45:53;;;;;;;3.97;2.40;;;;;;;10.38;100.00;98933.25;5091790;28;20184;-74
2023/03/13 05:48:18;;;;;;;2.87;2.47;;;;;;;10.43;100.00;98944.00;5073538;28;20582;-75
2023/03/13 05:50:43;;;;;;;3.00;2.37;;;;;;;10.37;100.00;98938.47;5086867;27;20231;-76
2023/03/13 05:53:09;;;;;;;3.70;2.63;;;;;;;10.47;100.00;98942.84;5084485;28;20195;-76
2023/03/13 05:55:34;;;;;;;6.43;3.10;;;;;;;10.52;100.00;98942.50;5091586;28;20651;-75
2023/03/13 05:57:59;;;;;;;4.57;3.17;;;;;;;10.52;100.00;98939.94;5091767;28;20180;-75
2023/03/13 06:00:25;;;;;;;3.40;3.10;;;;;;;10.49;100.00;98955.59;5084263;27;20690;-75
2023/03/13 06:02:50;;;;;;;5.20;3.43;;;;;;;10.67;100.00;98956.00;5104582;28;20203;-73
2023/03/13 06:05:15;;;;;;;3.20;2.93;;;;;;;10.72;100.00;98935.91;5091552;28;20188;-75
2023/03/13 06:07:40;;;;;;;3.43;3.13;;;;;;;10.83;100.00;98937.69;5091660;28;20640;-74
2023/03/13 06:10:06;;;;;;;5.07;3.77;;;;;;;10.90;100.00;98933.72;5081396;27;20214;-74
2023/03/13 06:12:31;;;;;;;3.77;3.47;;;;;;;10.84;100.00;98943.66;5106588;28;20187;-74
2023/03/13 06:14:57;;;;;;;4.37;3.50;;;;;;;10.86;100.00;98937.44;5085898;28;20640;-73
2023/03/13 06:17:24;;;;;;;4.37;4.07;;;;;;;11.01;100.00;98940.63;5084241;28;20194;-74
2023/03/13 06:19:49;;;;;;;4.63;4.20;;;;;;;11.00;100.00;98931.25;5073257;28;20177;-75
2023/03/13 06:22:15;;;;;;;9.10;4.67;;;;;;;11.02;100.00;98933.75;5096325;27;20245;-75
2023/03/13 06:24:43;;;;;;;4.97;4.57;;;;;;;11.09;100.00;98930.59;5073336;28;20254;-75
2023/03/13 06:27:11;;;;;;;4.40;4.10;;;;;;;11.04;100.00;98940.41;5106983;28;20241;-73
2023/03/13 06:29:36;;;;;;;5.20;4.70;;;;;;;11.01;100.00;98934.69;5091394;28;20188;-74
2023/03/13 06:32:02;;;;;;;4.70;4.23;;;;;;;11.05;100.00;98933.50;5096030;27;20592;-74
2023/03/13 06:34:27;;;;;;;4.23;3.90;;;;;;;11.16;100.00;98938.66;5091269;28;20221;-75
2023/03/13 06:36:52;;;;;;;4.80;4.40;;;;;;;11.10;100.00;98950.25;5091119;28;20191;-74
2023/03/13 06:39:18;;;;;;;4.43;3.93;;;;;;;11.24;100.00;98946.63;5091437;28;20183;-74
2023/03/13 06:41:43;;;;;;;4.03;3.63;;;;;;;11.22;100.00;98948.47;5085083;27;20625;-76
2023/03/13 06:44:08;;;;;;;3.40;3.17;;;;;;;11.16;100.00;98948.94;5086621;28;20192;-74
2023/03/13 06:46:34;;;;;;;3.33;3.03;;;;;;;11.20;100.00;98931.53;5073011;28;20235;-76
2023/03/13 06:49:03;;;;;;;3.60;3.30;;;;;;;11.20;100.00;98941.81;5067832;28;20203;-73
2023/03/13 06:51:28;;;;;;;3.70;3.30;;;;;;;11.23;100.00;98933.88;5072630;28;20227;-75
2023/03/13 06:54:02;;;;;;;3.73;3.43;;;;;;;11.35;100.00;98929.53;5080309;28;20188;-76
2023/03/13 06:56:28;;;;;;;4.07;3.40;;;;;;;11.29;100.00;98923.91;5076675;28;20171;-73
2023/03/13 06:58:54;;;;;;;2.87;2.67;;;;;;;11.39;100.00;98923.22;5095427;28;20195;-72
2023/03/13 07:01:19;;;;;;;2.80;2.60;;;;;;;11.49;100.00;98933.66;5072722;28;20303;-74
2023/03/13 07:03:47;;;;;;;2.43;2.30;;;;;;;11.68;100.00;98920.16;5082296;28;20237;-73
2023/03/13 07:06:12;;;;;;;2.40;2.20;;;;;;;11.76;100.00;98921.19;5076146;28;20179;-74
2023/03/13 07:08:38;;;;;;;3.57;2.73;;;;;;;11.79;100.00;98930.44;5088034;28;20181;-74
2023/03/13 07:11:06;;;;;;;2.10;2.00;;;;;;;11.77;100.00;98927.97;5072474;28;20265;-74
2023/03/13 07:13:32;;;;;;;1.93;1.80;;;;;;;11.93;100.00;98925.03;5084686;28;20195;-76
2023/03/13 07:16:05;;;;;;;1.80;1.70;;;;;;;11.90;100.00;98924.44;5066682;28;20263;-74
2023/03/13 07:18:31;;;;;;;2.13;1.97;;;;;;;11.98;100.00;98932.41;5094758;28;20679;-72
2023/03/13 07:20:58;;;;;;;2.13;1.93;;;;;;;12.09;100.00;98934.97;5073563;28;20622;-72
2023/03/13 07:23:26;;;;;;;2.03;1.93;;;;;;;12.05;100.00;98937.91;5085183;28;20195;-75
2023/03/13 07:26:02;;;;;;;2.07;1.87;;;;;;;11.99;100.00;98933.22;5076077;28;20187;-74
2023/03/13 07:28:29;;;;;;;2.80;2.07;;;;;;;12.04;100.00;98929.34;5076529;28;20180;-75
2023/03/13 07:31:02;;;;;;;2.30;2.10;;;;;;;11.98;100.00;98931.59;5072485;27;20223;-75
2023/03/13 07:33:28;;;;;;;2.50;1.80;;;;;;;12.16;100.00;98932.72;5084823;28;20208;-74
2023/03/13 07:35:53;;;;;;;3.60;1.77;;;;;;;12.22;100.00;98942.53;5094056;28;20179;-74
2023/03/13 07:38:19;;;;;;;1.90;1.80;;;;;;;12.22;100.00;98942.53;5088448;28;20202;-71
2023/03/13 07:40:52;;;;;;;2.73;1.87;;;;;;;12.14;100.00;98936.34;5089789;27;20226;-74
2023/03/13 07:43:18;;;;;;;1.60;1.50;;;;;;;12.22;100.00;98942.53;5085668;28;20200;-73
2023/03/13 07:45:54;;;;;;;4.80;1.90;;;;;;;12.21;100.00;98940.06;5094352;28;20204;-73
2023/03/13 07:48:21;;;;;;;1.97;1.77;;;;;;;12.52;100.00;98940.19;5081320;28;20430;-74
2023/03/13 07:50:47;;;;;;;2.87;1.80;;;;;;;12.37;100.00;98930.16;5070834;28;20472;-72
2023/03/13 07:53:12;;;;;;;3.33;1.80;;;;;;;12.40;100.00;98931.66;5085311;28;20695;-72
2023/03/13 07:55:37;;;;;;;2.17;1.80;;;;;;;12.29;100.00;98936.88;5093769;28;20186;-73
2023/03/13 07:58:03;;;;;;;1.93;1.70;;;;;;;12.29;100.00;98935.09;5093684;28;20184;-73
2023/03/13 08:00:28;;;;;;;2.53;1.70;;;;;;;12.43;100.00;98937.41;5075646;27;20302;-73
2023/03/13 08:02:53;;;;;;;2.40;1.60;;;;;;;12.30;100.00;98939.31;5069524;28;20682;-76
2023/03/13 08:05:19;;;;;;;2.20;2.00;;;;;;;12.43;100.00;98939.97;5068988;28;20188;-73
2023/03/13 08:07:44;;;;;;;1.73;1.63;;;;;;;12.35;100.00;98947.50;5064602;28;20587;-75
2023/03/13 08:10:10;;;;;;;2.67;2.13;;;;;;;12.24;100.00;98943.22;5064961;28;20205;-73
2023/03/13 08:12:35;;;;;;;3.30;2.17;;;;;;;12.41;100.00;98928.97;5087488;28;20172;-73
2023/03/13 08:15:00;;;;;;;2.97;1.90;;;;;;;12.40;100.00;98924.78;5087505;28;20545;-74
2023/03/13 08:17:28;;;;;;;3.87;2.60;;;;;;;12.41;100.00;98928.16;5072684;28;20236;-73
2023/03/13 08:19:54;;;;;;;3.87;2.03;;;;;;;12.53;100.00;98931.50;5072121;28;20206;-73
2023/03/13 08:22:19;;;;;;;4.50;2.20;;;;;;;12.60;100.00;98932.63;5091204;28;20223;-79
2023/03/13 08:24:44;;;;;;;2.00;1.73;;;;;;;12.57;100.00;98938.03;5093203;28;20176;-74
2023/03/13 08:27:09;;;;;;;2.37;1.97;;;;;;;12.49;100.00;98938.69;5088500;28;20180;-73
2023/03/13 08:29:35;;;;;;;2.93;1.93;;;;;;;12.61;100.00;98941.19;5093374;28;20217;-72
2023/03/13 08:32:00;;;;;;;3.67;2.30;;;;;;;12.48;100.00;98947.34;5037652;28;20236;-72
2023/03/13 08:34:25;;;;;;;3.77;2.10;;;;;;;12.58;100.00;98947.44;5060588;28;20193;-73
2023/03/13 08:36:51;;;;;;;3.00;2.10;;;;;;;12.64;100.00;98957.25;5073062;28;20188;-73
2023/03/13 08:39:18;;;;;;;5.03;2.50;;;;;;;12.45;100.00;98959.69;5072927;28;20601;-72
2023/03/13 08:41:45;;;;;;;3.17;2.30;;;;;;;12.47;100.00;98961.19;5078600;28;20390;-73
2023/03/13 08:44:13;;;;;;;2.57;2.37;;;;;;;12.37;100.00;98963.69;5076613;28;20176;-73
2023/03/13 08:46:40;;;;;;;5.83;2.70;;;;;;;12.39;100.00;98964.38;5074763;28;20267;-74
2023/03/13 08:49:06;;;;;;;4.23;2.23;;;;;;;12.39;100.00;98963.56;5064141;28;20202;-75
2023/03/13 08:51:32;;;;;;;3.27;2.70;;;;;;;12.38;100.00;98967.91;5072103;28;20301;-74
2023/03/13 08:53:58;;;;;;;4.37;2.70;;;;;;;12.26;100.00;98964.53;5062885;28;20169;-73
2023/03/13 08:56:25;;;;;;;4.10;2.30;;;;;;;12.35;100.00;98951.84;5088210;28;20180;-73
2023/03/13 08:58:53;;;;;;;7.03;2.90;;;;;;;12.35;100.00;98957.00;5074575;28;20267;-73
2023/03/13 09:01:20;;;;;;;3.13;2.60;;;;;;;12.36;100.00;98948.34;5074641;27;20226;-72
2023/03/13 09:03:45;;;;;;;3.85;3.38;;;;;;;12.44;100.00;98951.13;5076828;28;20826;-73
2023/03/13 09:06:11;;;;;;;3.33;2.80;;;;;;;12.29;100.00;98939.47;5092310;28;20191;-72
2023/03/13 09:08:37;;;;;;;4.40;2.90;;;;;;;12.18;100.00;98943.72;5070368;28;20199;-72
2023/03/13 09:11:09;;;;;;;2.70;2.50;;;;;;;12.24;100.00;98947.56;5065849;28;20234;-72
2023/03/13 09:13:37;;;;;;;4.60;3.10;;;;;;;12.31;100.00;98942.75;5081575;28;20176;-74
2023/03/13 09:16:06;;;;;;;4.07;2.90;;;;;;;12.45;100.00;98931.31;5061434;28;20598;-72
2023/03/13 09:18:32;;;;;;;3.53;2.60;;;;;;;12.38;100.00;98928.41;5074955;28;20628;-72
2023/03/13 09:20:58;;;;;;;2.70;2.50;;;;;;;12.49;100.00;98933.53;5071459;28;20223;-75
2023/03/13 09:23:24;;;;;;;4.20;3.10;;;;;;;12.48;100.00;98925.88;5092558;28;20310;-74
2023/03/13 09:25:55;;;;;;;3.13;2.90;;;;;;;12.44;100.00;98920.19;5070119;28;20191;-72
2023/03/13 09:28:22;;;;;;;12.20;2.80;;;;;;;12.62;100.00;98906.72;5092350;28;20230;-74
2023/03/13 09:30:48;;;;;;;3.40;2.40;;;;;;;12.74;100.00;98903.94;5055998;28;20344;-73
2023/03/13 09:33:18;;;;;;;2.40;2.17;;;;;;;13.12;100.00;98904.25;5084168;28;21022;-72
2023/03/13 09:35:49;;;;;;;3.07;2.60;;;;;;;13.17;100.00;98893.53;5091805;28;20653;-75
2023/03/13 09:38:15;;;;;;;3.30;2.83;;;;;;;13.36;100.00;98900.56;5074165;28;20187;-75
2023/03/13 09:40:45;;;;;;;5.00;2.40;;;;;;;13.49;100.00;98883.06;5067471;28;20222;-75
2023/03/13 09:43:28;;;;;;;3.60;2.83;;;;;;;13.45;100.00;98886.88;5100979;28;20221;-75
2023/03/13 09:46:00;;;;;;;3.20;2.67;;;;;;;13.58;100.00;98886.63;5087915;28;20564;-74
2023/03/13 09:48:33;;;;;;;4.67;2.37;;;;;;;13.53;100.00;98887.03;5091617;28;20227;-74
2023/03/13 09:51:23;;;;;;;3.57;2.70;;;;;;;13.70;100.00;98889.91;5070802;28;20234;-75
2023/03/13 09:54:05;;;;;;;3.53;2.60;;;;;;;14.00;100.00;98894.19;5075676;28;20178;-74
2023/03/13 09:56:36;;;;;;;3.73;2.90;;;;;;;14.11;100.00;98882.06;5089980;28;20728;-74
2023/03/13 09:59:14;;;;;;;2.80;2.53;;;;;;;14.04;100.00;98884.38;5073600;28;20199;-75
2023/03/13 10:01:41;;;;;;;2.77;2.33;;;;;;;13.98;100.00;98883.16;5076244;28;20223;-72
2023/03/13 10:04:31;;;;;;;4.63;2.80;;;;;;;13.72;100.00;98880.28;5075733;28;20186;-74
2023/03/13 10:06:57;;;;;;;3.33;3.00;;;;;;;13.78;100.00;98879.75;5078885;28;20256;-73
2023/03/13 10:09:30;;;;;;;3.37;3.10;;;;;;;13.70;100.00;98887.34;5091541;28;20602;-74
2023/03/13 10:11:59;;;;;;;3.83;3.30;;;;;;;13.54;100.00;98880.94;5078976;28;20237;-73
2023/03/13 10:14:31;;;;;;;3.43;3.13;;;;;;;13.58;100.00;98880.66;5091914;28;20215;-73
2023/03/13 10:17:10;;;;;;;3.33;3.00;;;;;;;13.52;100.00;98880.25;5081196;28;20632;-75
2023/03/13 10:19:42;;;;;;;3.87;3.13;;;;;;;13.74;100.00;98874.97;5098718;28;20275;-73
2023/03/13 10:22:21;;;;;;;6.03;2.90;;;;;;;13.84;100.00;98868.03;5095866;28;20219;-75
2023/03/13 10:24:53;;;;;;;6.00;2.53;;;;;;;14.13;100.00;98865.47;5061381;28;20237;-74
2023/03/13 10:27:19;;;;;;;6.00;2.60;;;;;;;14.33;100.00;98860.28;5069521;28;20233;-74
2023/03/13 10:29:44;;;;;;;2.70;2.40;;;;;;;14.60;100.00;98858.72;5071459;28;20200;-74
2023/03/13 10:32:14;;;;;;;3.80;2.30;;;;;;;14.40;100.00;98866.53;5094199;28;20226;-76
2023/03/13 10:35:02;;;;;;;4.00;2.40;;;;;;;14.35;100.00;98861.78;5107462;28;20252;-77
2023/03/13 10:37:28;;;;;;;4.87;2.63;;;;;;;14.49;100.00;98863.09;5091580;28;20191;-74
2023/03/13 10:40:14;;;;;;;2.90;2.53;;;;;;;14.46;100.00;98859.97;5088617;28;20188;-82
2023/03/13 10:42:44;;;;;;;2.60;2.40;;;;;;;14.50;100.00;98866.53;5067762;28;20764;-76
2023/03/13 10:45:17;;;;;;;3.23;2.20;;;;;;;14.26;100.00;98857.41;5091631;28;20180;-77
2023/03/13 10:47:43;;;;;;;3.60;2.40;;;;;;;13.94;100.00;98860.28;5073199;28;20276;-75
2023/03/13 10:50:31;;;;;;;4.70;2.80;;;;;;;13.39;100.00;98862.38;5079945;28;20220;-73
2023/03/13 10:52:57;;;;;;;4.03;2.90;;;;;;;13.40;100.00;98869.19;5101826;28;20183;-73
2023/03/13 10:55:24;;;;;;;3.40;2.50;;;;;;;13.27;100.00;98862.59;5072777;28;20176;-73
2023/03/13 10:58:02;;;;;;;6.17;3.13;;;;;;;13.16;100.00;98859.16;5072152;28;20203;-75
2023/03/13 11:00:33;;;;;;;4.13;2.83;;;;;;;13.24;100.00;98853.34;5066089;28;20275;-72
2023/03/13 11:02:58;;;;;;;4.70;2.87;;;;;;;13.36;100.00;98851.50;5102740;28;20176;-75
2023/03/13 11:05:41;;;;;;;5.27;3.20;;;;;;;13.46;100.00;98841.19;5089852;28;20188;-75
2023/03/13 11:08:20;;;;;;;4.17;2.57;;;;;;;13.51;100.00;98833.88;5091352;28;20259;-74
2023/03/13 11:11:00;;;;;;;3.70;2.40;;;;;;;13.50;100.00;98833.03;5068125;28;20238;-73
2023/03/13 11:13:26;;;;;;;4.37;2.23;;;;;;;13.70;100.00;98828.72;5081237;28;20650;-74
2023/03/13 11:15:57;;;;;;;3.00;2.27;;;;;;;13.80;100.00;98830.50;5078851;28;20195;-77
2023/03/13 11:18:31;;;;;;;4.30;2.17;;;;;;;13.70;100.00;98820.16;5060142;28;20206;-73
2023/03/13 11:20:58;;;;;;;3.63;2.47;;;;;;;13.57;100.00;98815.25;5069740;28;20223;-74
2023/03/13 11:23:39;;;;;;;2.17;2.00;;;;;;;13.56;100.00;98816.19;5081825;28;20263;-74
2023/03/13 11:26:04;;;;;;;3.07;2.20;;;;;;;13.62;100.00;98813.09;5090574;28;20194;-73
2023/03/13 11:28:54;;;;;;;7.47;2.20;;;;;;;13.74;100.00;98806.00;5090861;28;20573;-75